createdAt,value
2019-04-27T00:02:05.786Z,1.03
2019-04-27T00:04:55.847Z,0.70
2019-04-27T00:07:33.583Z,0.65
2019-04-27T00:10:20.403Z,0.70
2019-04-27T00:12:47.924Z,0.90
2019-04-27T00:15:19.602Z,0.55
2019-04-27T00:18:09.458Z,0.93
2019-04-27T00:20:44.622Z,0.57
2019-04-27T00:23:15.051Z,0.60
2019-04-27T00:25:43.941Z,0.97
2019-04-27T00:28:12.971Z,0.90
2019-04-27T00:30:41.827Z,1.00
2019-04-27T00:33:13.617Z,0.82
2019-04-27T00:35:43.886Z,0.80
2019-04-27T00:38:17.101Z,1.00
2019-04-27T00:40:47.529Z,0.80
2019-04-27T00:43:16.422Z,0.90
2019-04-27T00:45:45.311Z,1.10
2019-04-27T00:48:14.306Z,1.07
2019-04-27T00:50:43.932Z,1.03
2019-04-27T00:53:13.393Z,1.00
2019-04-27T00:55:43.949Z,1.10
2019-04-27T00:58:17.144Z,1.30
2019-04-27T01:00:54.027Z,1.40
2019-04-27T01:03:24.568Z,1.17
2019-04-27T01:05:53.441Z,1.10
2019-04-27T01:08:22.969Z,1.20
2019-04-27T01:10:53.668Z,0.90
2019-04-27T01:13:23.081Z,0.90
2019-04-27T01:15:52.084Z,1.10
2019-04-27T01:18:20.971Z,1.13
2019-04-27T01:20:49.966Z,1.13
2019-04-27T01:23:19.350Z,1.00
2019-04-27T01:25:51.093Z,1.13
2019-04-27T01:28:21.554Z,1.25
2019-04-27T01:30:52.019Z,0.90
2019-04-27T01:33:20.873Z,1.20
2019-04-27T01:35:49.766Z,0.87
2019-04-27T01:38:19.190Z,0.70
2019-04-27T01:40:49.787Z,1.00
2019-04-27T01:43:18.770Z,0.80
2019-04-27T01:45:48.826Z,1.00
2019-04-27T01:48:23.638Z,0.70
2019-04-27T01:50:49.214Z,0.80
2019-04-27T01:53:19.062Z,0.90
2019-04-27T01:55:49.113Z,0.90
2019-04-27T01:58:20.147Z,0.53
2019-04-27T02:00:56.596Z,0.70
2019-04-27T02:03:33.303Z,0.97
2019-04-27T02:06:01.330Z,0.70
2019-04-27T02:08:30.233Z,0.80
2019-04-27T02:10:59.495Z,0.70
2019-04-27T02:13:29.044Z,0.73
2019-04-27T02:15:58.790Z,0.80
2019-04-27T02:18:36.848Z,0.60
2019-04-27T02:20:59.198Z,0.80
2019-04-27T02:23:29.347Z,0.90
2019-04-27T02:25:58.693Z,1.20
2019-04-27T02:28:39.419Z,0.90
2019-04-27T02:31:22.105Z,0.70
2019-04-27T02:33:55.294Z,0.80
2019-04-27T02:36:24.186Z,1.00
2019-04-27T02:38:53.094Z,0.70
2019-04-27T02:41:21.966Z,0.80
2019-04-27T02:43:52.631Z,0.80
2019-04-27T02:46:21.592Z,0.93
2019-04-27T02:48:58.677Z,0.77
2019-04-27T02:51:42.874Z,0.80
2019-04-27T02:54:12.804Z,0.90
2019-04-27T02:56:41.846Z,0.83
2019-04-27T02:59:12.168Z,0.93
2019-04-27T03:01:46.507Z,0.90
2019-04-27T03:04:13.424Z,0.70
2019-04-27T03:06:42.319Z,0.80
2019-04-27T03:09:12.241Z,0.90
2019-04-27T03:11:41.127Z,0.90
2019-04-27T03:14:36.101Z,0.70
2019-04-27T03:17:11.267Z,0.75
2019-04-27T03:19:49.459Z,0.90
2019-04-27T03:22:19.616Z,0.60
2019-04-27T03:24:53.811Z,0.60
2019-04-27T03:27:30.125Z,0.63
2019-04-27T03:29:59.723Z,0.67
2019-04-27T03:32:31.473Z,0.63
2019-04-27T03:35:02.731Z,0.90
2019-04-27T03:37:30.656Z,0.70
2019-04-27T03:40:00.176Z,1.17
2019-04-27T03:42:29.444Z,0.90
2019-04-27T03:45:00.570Z,0.70
2019-04-27T03:47:30.663Z,0.85
2019-04-27T03:50:00.190Z,1.00
2019-04-27T03:52:36.905Z,1.07
2019-04-27T03:55:13.539Z,0.60
2019-04-27T03:57:44.107Z,0.70
2019-04-27T04:00:16.026Z,0.90
2019-04-27T04:02:44.860Z,0.67
2019-04-27T04:05:13.956Z,0.80
2019-04-27T04:07:42.848Z,0.63
2019-04-27T04:10:13.893Z,0.98
2019-04-27T04:12:47.393Z,0.80
2019-04-27T04:15:24.062Z,0.80
2019-04-27T04:17:52.961Z,0.80
2019-04-27T04:20:21.844Z,0.80
2019-04-27T04:22:51.527Z,0.80
2019-04-27T04:25:20.590Z,0.93
2019-04-27T04:27:50.651Z,1.10
2019-04-27T04:30:20.044Z,0.88
2019-04-27T04:32:51.694Z,0.90
2019-04-27T04:35:21.895Z,0.97
2019-04-27T04:37:52.845Z,1.03
2019-04-27T04:40:23.398Z,1.20
2019-04-27T04:42:53.847Z,1.00
2019-04-27T04:45:40.865Z,0.93
2019-04-27T04:48:13.856Z,0.93
2019-04-27T04:50:42.742Z,1.00
2019-04-27T04:53:12.956Z,1.10
2019-04-27T04:55:41.971Z,1.40
2019-04-27T04:58:11.669Z,0.90
2019-04-27T05:00:40.663Z,1.10
2019-04-27T05:03:10.371Z,1.10
2019-04-27T05:05:41.282Z,0.77
2019-04-27T05:08:10.714Z,1.00
2019-04-27T05:10:39.636Z,0.83
2019-04-27T05:13:09.475Z,0.90
2019-04-27T05:15:39.481Z,1.00
2019-04-27T05:18:09.340Z,0.80
2019-04-27T05:20:39.835Z,0.60
2019-04-27T05:23:09.823Z,1.00
2019-04-27T05:25:39.088Z,1.07
2019-04-27T05:28:09.781Z,0.88
2019-04-27T05:30:39.126Z,0.70
2019-04-27T05:33:09.158Z,0.98
2019-04-27T05:35:38.763Z,0.70
2019-04-27T05:38:12.909Z,0.60
2019-04-27T05:40:40.014Z,0.50
2019-04-27T05:43:10.041Z,0.40
2019-04-27T05:45:53.161Z,0.70
2019-04-27T05:48:27.744Z,0.63
2019-04-27T05:50:58.913Z,0.40
2019-04-27T05:53:29.070Z,0.47
2019-04-27T05:55:59.426Z,0.30
2019-04-27T05:58:28.973Z,0.40
2019-04-27T06:00:59.450Z,0.50
2019-04-27T06:03:29.690Z,0.60
2019-04-27T06:06:01.404Z,0.70
2019-04-27T06:08:29.597Z,0.23
2019-04-27T06:10:59.332Z,0.43
2019-04-27T06:13:30.690Z,0.60
2019-04-27T06:15:59.332Z,0.60
2019-04-27T06:18:29.395Z,0.67
2019-04-27T06:20:59.813Z,0.63
2019-04-27T06:23:29.112Z,0.47
2019-04-27T06:26:01.602Z,0.57
2019-04-27T06:28:29.328Z,0.57
2019-04-27T06:30:59.483Z,0.60
2019-04-27T06:33:34.158Z,0.50
2019-04-27T06:35:59.444Z,0.63
2019-04-27T06:38:29.679Z,0.60
2019-04-27T06:40:59.355Z,0.40
2019-04-27T06:43:29.520Z,0.50
2019-04-27T06:45:58.753Z,1.00
2019-04-27T06:48:29.553Z,0.70
2019-04-27T06:51:03.548Z,0.60
2019-04-27T06:53:29.236Z,0.83
2019-04-27T06:55:58.610Z,0.80
2019-04-27T06:58:29.232Z,0.30
2019-04-27T07:01:04.313Z,0.30
2019-04-27T07:03:33.337Z,0.60
2019-04-27T07:06:02.328Z,0.50
2019-04-27T07:08:31.403Z,0.40
2019-04-27T07:11:00.398Z,0.70
2019-04-27T07:13:29.319Z,0.40
2019-04-27T07:15:59.887Z,0.60
2019-04-27T07:18:29.035Z,0.42
2019-04-27T07:20:58.673Z,0.40
2019-04-27T07:23:29.231Z,0.30
2019-04-27T07:25:59.882Z,0.30
2019-04-27T07:28:29.005Z,0.50
2019-04-27T07:30:58.678Z,0.40
2019-04-27T07:33:29.522Z,0.50
2019-04-27T07:35:59.670Z,0.40
2019-04-27T07:38:29.389Z,0.53
2019-04-27T07:40:58.749Z,0.43
2019-04-27T07:43:44.265Z,0.50
2019-04-27T07:46:13.156Z,0.40
2019-04-27T07:48:42.047Z,0.40
2019-04-27T07:51:12.062Z,0.80
2019-04-27T07:53:40.955Z,0.50
2019-04-27T07:56:10.833Z,0.35
2019-04-27T07:58:39.760Z,0.30
2019-04-27T08:01:09.676Z,0.40
2019-04-27T08:03:39.041Z,0.43
2019-04-27T08:06:10.838Z,0.40
2019-04-27T08:08:39.831Z,0.53
2019-04-27T08:11:11.427Z,0.50
2019-04-27T08:13:39.563Z,0.80
2019-04-27T08:16:08.881Z,0.53
2019-04-27T08:18:39.513Z,0.60
2019-04-27T08:21:09.408Z,0.45
2019-04-27T08:23:39.416Z,0.80
2019-04-27T08:26:10.569Z,0.70
2019-04-27T08:28:59.327Z,0.40
2019-04-27T08:31:32.527Z,0.50
2019-04-27T08:34:01.414Z,0.47
2019-04-27T08:36:30.300Z,0.30
2019-04-27T08:38:59.193Z,0.40
2019-04-27T08:41:29.570Z,0.77
2019-04-27T08:43:58.784Z,0.43
2019-04-27T08:46:28.653Z,0.97
2019-04-27T08:48:58.711Z,0.70
2019-04-27T08:51:29.103Z,0.63
2019-04-27T08:53:59.129Z,0.50
2019-04-27T08:56:28.189Z,0.50
2019-04-27T08:58:57.081Z,0.63
2019-04-27T09:01:25.974Z,0.40
2019-04-27T09:03:54.864Z,0.30
2019-04-27T09:06:23.753Z,0.47
2019-04-27T09:08:55.515Z,0.83
2019-04-27T09:11:25.940Z,0.37
2019-04-27T09:13:59.159Z,0.50
2019-04-27T09:16:35.396Z,0.50
2019-04-27T09:19:05.873Z,0.50
2019-04-27T09:21:52.735Z,0.53
2019-04-27T09:24:21.626Z,0.57
2019-04-27T09:26:50.519Z,0.50
2019-04-27T09:29:19.817Z,0.50
2019-04-27T09:31:50.050Z,0.87
2019-04-27T09:34:19.015Z,0.90
2019-04-27T09:36:48.030Z,0.57
2019-04-27T09:39:16.925Z,0.70
2019-04-27T09:41:48.380Z,0.60
2019-04-27T09:44:19.215Z,0.80
2019-04-27T09:46:48.111Z,0.53
2019-04-27T09:49:17.098Z,0.57
2019-04-27T09:51:46.099Z,0.70
2019-04-27T09:54:15.941Z,0.62
2019-04-27T09:56:46.628Z,0.50
2019-04-27T09:59:16.042Z,0.60
2019-04-27T10:01:46.530Z,0.60
2019-04-27T10:04:15.711Z,0.70
2019-04-27T10:06:48.591Z,0.50
2019-04-27T10:09:16.826Z,0.73
2019-04-27T10:11:45.718Z,0.47
2019-04-27T10:14:16.299Z,0.53
2019-04-27T10:16:46.889Z,0.70
2019-04-27T10:19:28.110Z,0.80
2019-04-27T10:21:46.913Z,0.60
2019-04-27T10:24:15.804Z,0.60
2019-04-27T10:26:44.699Z,1.10
2019-04-27T10:29:13.588Z,0.67
2019-04-27T10:31:42.581Z,0.60
2019-04-27T10:34:12.496Z,0.50
2019-04-27T10:36:41.498Z,0.30
2019-04-27T10:39:13.400Z,0.70
2019-04-27T10:41:42.654Z,0.60
2019-04-27T10:44:12.470Z,0.93
2019-04-27T10:46:44.224Z,0.70
2019-04-27T10:49:13.113Z,0.43
2019-04-27T10:51:42.006Z,0.50
2019-04-27T10:54:11.820Z,0.60
2019-04-27T10:56:40.814Z,0.43
2019-04-27T10:59:10.321Z,0.42
2019-04-27T11:01:39.311Z,0.40
2019-04-27T11:04:10.567Z,0.47
2019-04-27T11:06:43.748Z,0.87
2019-04-27T11:09:12.845Z,0.60
2019-04-27T11:11:42.252Z,0.40
2019-04-27T11:14:11.445Z,0.65
2019-04-27T11:16:40.543Z,0.70
2019-04-27T11:19:10.563Z,0.80
2019-04-27T11:21:39.556Z,0.60
2019-04-27T11:24:08.936Z,0.57
2019-04-27T11:26:37.854Z,0.33
2019-04-27T11:29:07.846Z,0.50
2019-04-27T11:31:36.757Z,0.50
2019-04-27T11:34:06.742Z,0.40
2019-04-27T11:36:40.070Z,0.60
2019-04-27T11:39:11.934Z,0.60
2019-04-27T11:41:40.824Z,0.60
2019-04-27T11:44:10.943Z,0.60
2019-04-27T11:46:39.834Z,0.73
2019-04-27T11:49:09.624Z,0.50
2019-04-27T11:51:39.357Z,0.40
2019-04-27T11:54:09.170Z,0.70
2019-04-27T11:56:38.537Z,0.70
2019-04-27T11:59:08.669Z,0.50
2019-04-27T12:01:37.584Z,0.37
2019-04-27T12:04:08.020Z,0.50
2019-04-27T12:06:36.904Z,0.47
2019-04-27T12:09:07.198Z,0.40
2019-04-27T12:11:36.324Z,0.50
2019-04-27T12:14:06.210Z,0.40
2019-04-27T12:16:36.023Z,0.50
2019-04-27T12:19:06.569Z,0.40
2019-04-27T12:21:36.183Z,0.47
2019-04-27T12:24:05.553Z,0.50
2019-04-27T12:26:48.109Z,0.40
2019-04-27T12:29:18.473Z,0.60
2019-04-27T12:31:49.088Z,0.50
2019-04-27T12:34:18.262Z,0.50
2019-04-27T12:36:47.153Z,0.43
2019-04-27T12:39:16.044Z,0.50
2019-04-27T12:41:46.576Z,0.60
2019-04-27T12:44:16.026Z,0.50
2019-04-27T12:46:46.093Z,0.60
2019-04-27T12:49:16.187Z,0.50
2019-04-27T12:51:46.745Z,0.60
2019-04-27T12:54:23.141Z,0.50
2019-04-27T12:57:06.640Z,0.60
2019-04-27T12:59:53.156Z,0.50
2019-04-27T13:02:23.678Z,0.60
2019-04-27T13:04:52.863Z,0.53
2019-04-27T13:07:26.000Z,0.60
2019-04-27T13:09:56.387Z,0.50
2019-04-27T13:12:27.412Z,0.53
2019-04-27T13:14:56.331Z,0.60
2019-04-27T13:17:26.503Z,0.73
2019-04-27T13:19:56.095Z,0.57
2019-04-27T13:22:25.064Z,0.90
2019-04-27T13:24:54.148Z,0.53
2019-04-27T13:27:23.036Z,0.53
2019-04-27T13:29:51.928Z,0.70
2019-04-27T13:32:20.820Z,0.60
2019-04-27T13:34:49.711Z,0.60
2019-04-27T13:37:32.633Z,0.50
2019-04-27T13:40:07.195Z,0.60
2019-04-27T13:42:33.802Z,0.70
2019-04-27T13:45:06.011Z,0.50
2019-04-27T13:47:36.750Z,0.73
2019-04-27T13:50:08.568Z,0.50
2019-04-27T13:52:38.965Z,0.50
2019-04-27T13:55:08.078Z,0.57
2019-04-27T13:57:49.435Z,0.60
2019-04-27T14:00:12.224Z,0.60
2019-04-27T14:02:41.104Z,0.60
2019-04-27T14:05:11.821Z,0.60
2019-04-27T14:07:40.851Z,0.80
2019-04-27T14:10:10.847Z,0.70
2019-04-27T14:12:39.703Z,0.60
2019-04-27T14:15:09.650Z,1.60
2019-04-27T14:17:39.227Z,1.27
2019-04-27T14:20:09.750Z,0.68
2019-04-27T14:22:39.270Z,1.00
2019-04-27T14:25:08.729Z,0.60
2019-04-27T14:27:40.637Z,0.40
2019-04-27T14:30:13.102Z,0.30
2019-04-27T14:32:42.394Z,0.90
2019-04-27T14:35:12.249Z,0.50
2019-04-27T14:37:41.142Z,0.70
2019-04-27T14:40:10.627Z,0.40
2019-04-27T14:42:39.502Z,0.40
2019-04-27T14:45:10.377Z,0.60
2019-04-27T14:47:39.925Z,0.50
2019-04-27T14:50:10.015Z,0.30
2019-04-27T14:52:40.852Z,0.40
2019-04-27T14:55:10.570Z,0.40
2019-04-27T14:57:39.555Z,0.30
2019-04-27T15:00:10.364Z,0.43
2019-04-27T15:02:39.355Z,0.50
2019-04-27T15:05:08.997Z,0.40
2019-04-27T15:07:37.975Z,0.43
2019-04-27T15:10:07.479Z,0.80
2019-04-27T15:12:36.683Z,0.57
2019-04-27T15:15:07.826Z,0.43
2019-04-27T15:17:37.125Z,0.53
2019-04-27T15:20:14.112Z,0.83
2019-04-27T15:22:43.711Z,0.87
2019-04-27T15:25:15.746Z,0.95
2019-04-27T15:27:45.708Z,1.50
2019-04-27T15:30:22.469Z,0.80
2019-04-27T15:32:52.896Z,0.97
2019-04-27T15:35:40.487Z,0.85
2019-04-27T15:38:13.910Z,1.05
2019-04-27T15:41:01.147Z,1.30
2019-04-27T15:43:31.572Z,1.17
2019-04-27T15:46:00.684Z,0.90
2019-04-27T15:48:33.636Z,0.90
2019-04-27T15:51:03.244Z,1.00
2019-04-27T15:53:30.624Z,0.97
2019-04-27T15:56:01.762Z,1.10
2019-04-27T15:58:30.147Z,1.10
2019-04-27T16:01:02.397Z,0.80
2019-04-27T16:03:31.357Z,0.87
2019-04-27T16:06:03.201Z,0.77
2019-04-27T16:08:31.136Z,1.00
2019-04-27T16:11:00.025Z,0.80
2019-04-27T16:13:32.866Z,0.90
2019-04-27T16:15:59.550Z,0.80
2019-04-27T16:18:29.242Z,0.90
2019-04-27T16:21:02.769Z,0.83
2019-04-27T16:23:29.611Z,0.93
2019-04-27T16:26:00.644Z,1.00
2019-04-27T16:28:29.129Z,0.78
2019-04-27T16:30:58.186Z,0.70
2019-04-27T16:33:28.858Z,1.07
2019-04-27T16:36:06.359Z,0.70
2019-04-27T16:38:36.260Z,1.70
2019-04-27T16:41:05.296Z,1.23
2019-04-27T16:43:34.350Z,1.17
2019-04-27T16:46:04.637Z,1.10
2019-04-27T16:48:35.133Z,0.90
2019-04-27T16:51:04.915Z,1.40
2019-04-27T16:53:38.233Z,1.10
2019-04-27T16:56:14.542Z,1.00
2019-04-27T16:58:39.482Z,1.20
2019-04-27T17:01:12.079Z,0.90
2019-04-27T17:03:41.539Z,0.80
2019-04-27T17:06:11.473Z,1.17
2019-04-27T17:08:41.797Z,0.80
2019-04-27T17:11:13.609Z,1.40
2019-04-27T17:13:44.174Z,1.00
2019-04-27T17:16:31.264Z,1.70
2019-04-27T17:19:04.878Z,1.50
2019-04-27T17:21:33.433Z,0.90
2019-04-27T17:24:02.861Z,1.23
2019-04-27T17:26:35.296Z,1.37
2019-04-27T17:29:16.121Z,1.40
2019-04-27T17:31:42.063Z,1.30
2019-04-27T17:34:12.030Z,1.42
2019-04-27T17:36:41.793Z,1.50
2019-04-27T17:39:11.913Z,1.52
2019-04-27T17:41:41.744Z,1.77
2019-04-27T17:44:12.772Z,1.65
2019-04-27T17:46:47.057Z,1.70
2019-04-27T17:49:13.313Z,1.27
2019-04-27T17:51:44.390Z,2.60
2019-04-27T17:54:12.727Z,2.50
2019-04-27T17:56:48.239Z,2.60
2019-04-27T17:59:16.914Z,2.10
2019-04-27T18:01:42.788Z,1.80
2019-04-27T18:04:12.707Z,1.37
2019-04-27T18:06:42.662Z,2.10
2019-04-27T18:09:13.560Z,2.40
2019-04-27T18:11:42.553Z,11.07
2019-04-27T18:14:14.704Z,2.12
2019-04-27T18:16:42.792Z,6.83
2019-04-27T18:19:13.630Z,2.50
2019-04-27T18:21:56.834Z,3.23
2019-04-27T18:24:26.139Z,20.80
2019-04-27T18:27:04.358Z,11.53
2019-04-27T18:29:33.156Z,2.40
2019-04-27T18:32:02.044Z,1.23
2019-04-27T18:34:30.935Z,1.10
2019-04-27T18:36:59.826Z,1.17
2019-04-27T18:39:28.725Z,1.67
2019-04-27T18:41:58.504Z,2.10
2019-04-27T18:44:30.852Z,1.60
2019-04-27T18:47:02.156Z,1.87
2019-04-27T18:49:39.755Z,2.30
2019-04-27T18:52:27.380Z,2.20
2019-04-27T18:54:56.269Z,2.13
2019-04-27T18:57:25.160Z,2.33
2019-04-27T18:59:54.050Z,2.00
2019-04-27T19:02:22.948Z,2.37
2019-04-27T19:04:51.834Z,2.33
2019-04-27T19:07:20.723Z,1.57
2019-04-27T19:09:49.700Z,2.07
2019-04-27T19:12:20.446Z,1.80
2019-04-27T19:14:49.770Z,1.47
2019-04-27T19:17:19.786Z,1.30
2019-04-27T19:19:50.605Z,1.93
2019-04-27T19:22:19.505Z,3.70
2019-04-27T19:24:48.389Z,3.73
2019-04-27T19:27:37.042Z,2.57
2019-04-27T19:30:28.078Z,4.43
2019-04-27T19:32:57.149Z,1.80
2019-04-27T19:35:26.140Z,1.60
2019-04-27T19:37:55.032Z,2.00
2019-04-27T19:40:23.922Z,1.55
2019-04-27T19:42:52.814Z,2.07
2019-04-27T19:45:21.811Z,1.70
2019-04-27T19:47:50.710Z,1.70
2019-04-27T19:50:19.593Z,1.30
2019-04-27T19:52:50.252Z,1.30
2019-04-27T19:55:19.219Z,1.60
2019-04-27T19:57:49.787Z,1.87
2019-04-27T20:00:26.112Z,1.60
2019-04-27T20:02:55.413Z,1.77
2019-04-27T20:05:24.305Z,1.70
2019-04-27T20:07:53.298Z,1.80
2019-04-27T20:10:22.188Z,1.77
2019-04-27T20:12:51.092Z,2.73
2019-04-27T20:15:19.976Z,2.23
2019-04-27T20:17:50.721Z,2.47
2019-04-27T20:20:19.598Z,2.90
2019-04-27T20:22:48.487Z,2.20
2019-04-27T20:25:17.378Z,1.90
2019-04-27T20:27:49.633Z,1.80
2019-04-27T20:30:21.076Z,1.67
2019-04-27T20:32:51.084Z,1.90
2019-04-27T20:35:21.904Z,2.07
2019-04-27T20:37:51.893Z,1.83
2019-04-27T20:40:21.792Z,1.50
2019-04-27T20:42:51.601Z,1.33
2019-04-27T20:45:20.695Z,2.02
2019-04-27T20:47:52.342Z,2.20
2019-04-27T20:50:20.336Z,2.20
2019-04-27T20:52:50.888Z,2.40
2019-04-27T20:55:21.365Z,3.13
2019-04-27T20:57:59.668Z,2.10
2019-04-27T21:00:22.335Z,2.22
2019-04-27T21:02:55.732Z,2.17
2019-04-27T21:05:26.198Z,3.17
2019-04-27T21:08:02.631Z,2.83
2019-04-27T21:10:32.606Z,4.70
2019-04-27T21:13:01.538Z,5.50
2019-04-27T21:15:31.523Z,4.90
2019-04-27T21:18:01.245Z,4.67
2019-04-27T21:20:31.000Z,4.30
2019-04-27T21:23:01.811Z,4.27
2019-04-27T21:25:31.566Z,3.30
2019-04-27T21:28:14.905Z,4.33
2019-04-27T21:30:31.969Z,4.57
2019-04-27T21:33:01.204Z,2.80
2019-04-27T21:35:30.262Z,2.63
2019-04-27T21:37:59.154Z,2.10
2019-04-27T21:40:28.046Z,2.20
2019-04-27T21:42:56.936Z,2.47
2019-04-27T21:45:25.932Z,2.50
2019-04-27T21:47:54.826Z,2.37
2019-04-27T21:50:25.146Z,2.20
2019-04-27T21:53:02.529Z,2.13
2019-04-27T21:55:33.270Z,2.40
2019-04-27T21:58:02.160Z,2.10
2019-04-27T22:00:42.823Z,2.80
2019-04-27T22:03:17.049Z,2.20
2019-04-27T22:05:45.941Z,1.97
2019-04-27T22:08:14.829Z,2.25
2019-04-27T22:10:43.720Z,1.77
2019-04-27T22:13:14.046Z,2.27
2019-04-27T22:15:42.936Z,2.13
2019-04-27T22:18:12.646Z,2.22
2019-04-27T22:20:42.673Z,2.37
2019-04-27T22:23:23.141Z,2.30
2019-04-27T22:25:54.555Z,1.93
2019-04-27T22:28:22.853Z,2.60
2019-04-27T22:30:51.745Z,2.63
2019-04-27T22:33:21.450Z,1.83
2019-04-27T22:35:51.771Z,2.13
2019-04-27T22:38:20.743Z,2.15
2019-04-27T22:40:53.861Z,2.07
2019-04-27T22:43:24.290Z,1.72
2019-04-27T22:45:53.284Z,1.50
2019-04-27T22:48:22.173Z,1.97
2019-04-27T22:50:51.523Z,1.53
2019-04-27T22:53:20.472Z,1.77
2019-04-27T22:56:07.526Z,1.50
2019-04-27T22:58:38.117Z,2.00
2019-04-27T23:01:14.135Z,1.60
2019-04-27T23:03:44.603Z,2.03
2019-04-27T23:06:13.494Z,2.37
2019-04-27T23:08:42.491Z,2.10
2019-04-27T23:11:11.914Z,2.10
2019-04-27T23:13:43.138Z,2.07
2019-04-27T23:16:14.178Z,2.50
2019-04-27T23:18:43.069Z,1.90
2019-04-27T23:21:11.962Z,1.82
2019-04-27T23:23:41.439Z,2.10
2019-04-27T23:26:11.939Z,1.87
2019-04-27T23:28:41.356Z,2.07
2019-04-27T23:31:12.953Z,2.17
2019-04-27T23:33:43.380Z,1.87
2019-04-27T23:36:12.271Z,2.13
2019-04-27T23:38:41.164Z,2.37
2019-04-27T23:41:11.627Z,2.30
2019-04-27T23:43:40.686Z,1.90
2019-04-27T23:46:11.601Z,2.10
2019-04-27T23:48:42.076Z,2.70
2019-04-27T23:51:12.788Z,1.83
2019-04-27T23:53:41.863Z,2.13
2019-04-27T23:56:11.921Z,2.17
2019-04-27T23:58:40.894Z,2.17
